sensor_id;sensor_type;location;lat;lon;timestamp;temperature;humidity
78054;DHT22;67726;45.636;11.752;2023-05-09T00:01:21;18.30;65.30
78054;DHT22;67726;45.636;11.752;2023-05-09T00:03:46;18.30;64.40
78054;DHT22;67726;45.636;11.752;2023-05-09T00:06:12;18.30;66.00
78054;DHT22;67726;45.636;11.752;2023-05-09T00:08:39;18.30;67.20
78054;DHT22;67726;45.636;11.752;2023-05-09T00:11:05;18.30;67.30
78054;DHT22;67726;45.636;11.752;2023-05-09T00:13:31;18.30;67.30
78054;DHT22;67726;45.636;11.752;2023-05-09T00:15:57;18.30;69.90
78054;DHT22;67726;45.636;11.752;2023-05-09T00:18:23;18.30;69.60
78054;DHT22;67726;45.636;11.752;2023-05-09T00:20:49;18.30;68.50
78054;DHT22;67726;45.636;11.752;2023-05-09T00:23:15;18.30;68.70
78054;DHT22;67726;45.636;11.752;2023-05-09T00:25:41;18.20;71.10
78054;DHT22;67726;45.636;11.752;2023-05-09T00:28:07;18.20;70.90
78054;DHT22;67726;45.636;11.752;2023-05-09T00:30:33;18.20;68.30
78054;DHT22;67726;45.636;11.752;2023-05-09T00:32:58;18.20;71.40
78054;DHT22;67726;45.636;11.752;2023-05-09T00:35:24;18.10;70.90
78054;DHT22;67726;45.636;11.752;2023-05-09T00:37:50;18.10;72.70
78054;DHT22;67726;45.636;11.752;2023-05-09T00:40:17;18.10;74.00
78054;DHT22;67726;45.636;11.752;2023-05-09T00:42:43;18.10;72.80
78054;DHT22;67726;45.636;11.752;2023-05-09T00:45:09;18.10;72.10
78054;DHT22;67726;45.636;11.752;2023-05-09T00:47:34;18.10;72.10
78054;DHT22;67726;45.636;11.752;2023-05-09T00:50:01;18.10;75.00
78054;DHT22;67726;45.636;11.752;2023-05-09T00:52:26;18.00;72.10
78054;DHT22;67726;45.636;11.752;2023-05-09T00:54:53;18.00;72.80
78054;DHT22;67726;45.636;11.752;2023-05-09T00:57:19;18.10;74.00
78054;DHT22;67726;45.636;11.752;2023-05-09T00:59:44;18.00;72.30
78054;DHT22;67726;45.636;11.752;2023-05-09T01:02:10;18.00;70.90
78054;DHT22;67726;45.636;11.752;2023-05-09T01:04:36;18.00;74.80
78054;DHT22;67726;45.636;11.752;2023-05-09T01:09:59;18.00;72.80
78054;DHT22;67726;45.636;11.752;2023-05-09T01:18:00;17.90;71.30
78054;DHT22;67726;45.636;11.752;2023-05-09T01:20:46;17.90;67.00
78054;DHT22;67726;45.636;11.752;2023-05-09T01:26:25;17.80;65.90
78054;DHT22;67726;45.636;11.752;2023-05-09T01:31:43;17.80;64.90
78054;DHT22;67726;45.636;11.752;2023-05-09T01:34:10;17.80;70.00
78054;DHT22;67726;45.636;11.752;2023-05-09T01:36:39;17.80;72.70
78054;DHT22;67726;45.636;11.752;2023-05-09T01:39:11;17.90;73.70
78054;DHT22;67726;45.636;11.752;2023-05-09T01:41:37;17.90;73.40
78054;DHT22;67726;45.636;11.752;2023-05-09T01:44:09;17.90;74.60
78054;DHT22;67726;45.636;11.752;2023-05-09T01:46:36;17.90;73.10
78054;DHT22;67726;45.636;11.752;2023-05-09T01:49:02;17.80;69.50
78054;DHT22;67726;45.636;11.752;2023-05-09T01:51:30;17.80;72.80
78054;DHT22;67726;45.636;11.752;2023-05-09T01:53:56;17.70;71.70
78054;DHT22;67726;45.636;11.752;2023-05-09T01:56:23;17.70;72.90
78054;DHT22;67726;45.636;11.752;2023-05-09T01:58:51;17.70;69.30
78054;DHT22;67726;45.636;11.752;2023-05-09T02:01:18;17.70;70.80
78054;DHT22;67726;45.636;11.752;2023-05-09T02:03:46;17.60;70.20
78054;DHT22;67726;45.636;11.752;2023-05-09T02:06:16;17.70;72.00
78054;DHT22;67726;45.636;11.752;2023-05-09T02:08:43;17.50;70.90
78054;DHT22;67726;45.636;11.752;2023-05-09T02:11:08;17.60;71.90
78054;DHT22;67726;45.636;11.752;2023-05-09T02:13:34;17.60;73.80
78054;DHT22;67726;45.636;11.752;2023-05-09T02:16:03;17.60;70.80
78054;DHT22;67726;45.636;11.752;2023-05-09T02:18:29;17.50;69.70
78054;DHT22;67726;45.636;11.752;2023-05-09T02:20:57;17.50;72.30
78054;DHT22;67726;45.636;11.752;2023-05-09T02:23:22;17.50;73.30
78054;DHT22;67726;45.636;11.752;2023-05-09T02:25:48;17.60;73.80
78054;DHT22;67726;45.636;11.752;2023-05-09T02:28:17;17.50;72.00
78054;DHT22;67726;45.636;11.752;2023-05-09T02:30:44;17.50;74.50
78054;DHT22;67726;45.636;11.752;2023-05-09T02:33:11;17.60;73.90
78054;DHT22;67726;45.636;11.752;2023-05-09T02:35:41;17.60;74.60
78054;DHT22;67726;45.636;11.752;2023-05-09T02:38:08;17.50;71.80
78054;DHT22;67726;45.636;11.752;2023-05-09T02:40:34;17.50;71.30
78054;DHT22;67726;45.636;11.752;2023-05-09T02:43:00;17.50;72.30
78054;DHT22;67726;45.636;11.752;2023-05-09T02:45:26;17.60;73.90
78054;DHT22;67726;45.636;11.752;2023-05-09T02:47:52;17.70;72.20
78054;DHT22;67726;45.636;11.752;2023-05-09T02:50:18;17.70;72.80
78054;DHT22;67726;45.636;11.752;2023-05-09T02:52:43;17.60;74.90
78054;DHT22;67726;45.636;11.752;2023-05-09T02:55:09;17.60;73.80
78054;DHT22;67726;45.636;11.752;2023-05-09T02:57:35;17.70;71.90
78054;DHT22;67726;45.636;11.752;2023-05-09T03:00:01;17.70;73.20
78054;DHT22;67726;45.636;11.752;2023-05-09T03:02:27;17.70;72.40
78054;DHT22;67726;45.636;11.752;2023-05-09T03:04:52;17.60;71.30
78054;DHT22;67726;45.636;11.752;2023-05-09T03:07:18;17.70;72.00
78054;DHT22;67726;45.636;11.752;2023-05-09T03:09:43;17.60;72.20
78054;DHT22;67726;45.636;11.752;2023-05-09T03:12:09;17.60;69.30
78054;DHT22;67726;45.636;11.752;2023-05-09T03:14:35;17.60;74.30
78054;DHT22;67726;45.636;11.752;2023-05-09T03:17:00;17.60;73.40
78054;DHT22;67726;45.636;11.752;2023-05-09T03:19:26;17.60;71.40
78054;DHT22;67726;45.636;11.752;2023-05-09T03:21:52;17.70;68.80
78054;DHT22;67726;45.636;11.752;2023-05-09T03:24:17;17.60;74.50
78054;DHT22;67726;45.636;11.752;2023-05-09T03:26:43;17.60;73.00
78054;DHT22;67726;45.636;11.752;2023-05-09T03:29:08;17.60;71.50
78054;DHT22;67726;45.636;11.752;2023-05-09T03:31:34;17.50;71.40
78054;DHT22;67726;45.636;11.752;2023-05-09T03:34:00;17.60;72.70
78054;DHT22;67726;45.636;11.752;2023-05-09T03:36:26;17.50;76.10
78054;DHT22;67726;45.636;11.752;2023-05-09T03:38:51;17.50;74.40
78054;DHT22;67726;45.636;11.752;2023-05-09T03:41:17;17.30;75.00
78054;DHT22;67726;45.636;11.752;2023-05-09T03:43:43;17.40;76.10
78054;DHT22;67726;45.636;11.752;2023-05-09T03:46:09;17.30;76.80
78054;DHT22;67726;45.636;11.752;2023-05-09T03:48:35;17.20;76.40
78054;DHT22;67726;45.636;11.752;2023-05-09T03:51:01;17.20;76.30
78054;DHT22;67726;45.636;11.752;2023-05-09T03:53:27;17.20;76.40
78054;DHT22;67726;45.636;11.752;2023-05-09T03:55:53;17.10;76.80
78054;DHT22;67726;45.636;11.752;2023-05-09T03:58:18;17.10;76.50
78054;DHT22;67726;45.636;11.752;2023-05-09T04:00:44;17.10;76.40
78054;DHT22;67726;45.636;11.752;2023-05-09T04:03:10;17.00;76.60
78054;DHT22;67726;45.636;11.752;2023-05-09T04:05:36;17.00;76.70
78054;DHT22;67726;45.636;11.752;2023-05-09T04:08:02;17.00;77.30
78054;DHT22;67726;45.636;11.752;2023-05-09T04:10:29;16.90;76.40
78054;DHT22;67726;45.636;11.752;2023-05-09T04:12:55;16.90;77.30
78054;DHT22;67726;45.636;11.752;2023-05-09T04:15:21;16.90;73.40
78054;DHT22;67726;45.636;11.752;2023-05-09T04:17:46;16.90;75.00
78054;DHT22;67726;45.636;11.752;2023-05-09T04:20:12;16.80;76.30
78054;DHT22;67726;45.636;11.752;2023-05-09T04:22:38;16.80;76.70
78054;DHT22;67726;45.636;11.752;2023-05-09T04:25:04;16.80;77.20
78054;DHT22;67726;45.636;11.752;2023-05-09T04:27:29;16.80;77.30
78054;DHT22;67726;45.636;11.752;2023-05-09T04:29:55;16.90;77.20
78054;DHT22;67726;45.636;11.752;2023-05-09T04:32:21;16.90;77.40
78054;DHT22;67726;45.636;11.752;2023-05-09T04:34:48;16.90;77.90
78054;DHT22;67726;45.636;11.752;2023-05-09T04:37:13;17.00;77.30
78054;DHT22;67726;45.636;11.752;2023-05-09T04:39:39;17.00;76.80
78054;DHT22;67726;45.636;11.752;2023-05-09T04:42:05;17.10;77.80
78054;DHT22;67726;45.636;11.752;2023-05-09T04:44:31;17.20;77.90
78054;DHT22;67726;45.636;11.752;2023-05-09T04:46:57;17.20;77.70
78054;DHT22;67726;45.636;11.752;2023-05-09T04:49:23;17.30;78.20
78054;DHT22;67726;45.636;11.752;2023-05-09T04:51:50;17.40;77.60
78054;DHT22;67726;45.636;11.752;2023-05-09T04:54:15;17.50;76.70
78054;DHT22;67726;45.636;11.752;2023-05-09T04:56:41;17.50;76.30
78054;DHT22;67726;45.636;11.752;2023-05-09T04:59:07;17.70;75.10
78054;DHT22;67726;45.636;11.752;2023-05-09T05:01:32;17.80;76.80
78054;DHT22;67726;45.636;11.752;2023-05-09T05:03:58;17.90;75.00
78054;DHT22;67726;45.636;11.752;2023-05-09T05:06:24;18.00;77.20
78054;DHT22;67726;45.636;11.752;2023-05-09T05:08:49;18.10;75.90
78054;DHT22;67726;45.636;11.752;2023-05-09T05:11:15;18.10;74.90
78054;DHT22;67726;45.636;11.752;2023-05-09T05:13:42;18.20;75.30
78054;DHT22;67726;45.636;11.752;2023-05-09T05:16:08;18.30;76.10
78054;DHT22;67726;45.636;11.752;2023-05-09T05:18:34;18.40;72.30
78054;DHT22;67726;45.636;11.752;2023-05-09T05:21:00;18.50;71.30
78054;DHT22;67726;45.636;11.752;2023-05-09T05:23:25;18.50;70.50
78054;DHT22;67726;45.636;11.752;2023-05-09T05:25:51;18.60;69.50
78054;DHT22;67726;45.636;11.752;2023-05-09T05:28:17;18.70;70.20
78054;DHT22;67726;45.636;11.752;2023-05-09T05:30:42;18.60;66.30
78054;DHT22;67726;45.636;11.752;2023-05-09T05:33:08;18.80;69.80
78054;DHT22;67726;45.636;11.752;2023-05-09T05:35:34;18.80;68.00
78054;DHT22;67726;45.636;11.752;2023-05-09T05:37:59;18.90;63.90
78054;DHT22;67726;45.636;11.752;2023-05-09T05:40:25;18.90;68.20
78054;DHT22;67726;45.636;11.752;2023-05-09T05:42:51;18.90;62.90
78054;DHT22;67726;45.636;11.752;2023-05-09T05:45:16;19.00;64.00
78054;DHT22;67726;45.636;11.752;2023-05-09T05:47:42;19.10;68.50
78054;DHT22;67726;45.636;11.752;2023-05-09T05:50:08;19.10;67.20
78054;DHT22;67726;45.636;11.752;2023-05-09T05:52:37;19.20;67.70
78054;DHT22;67726;45.636;11.752;2023-05-09T05:55:03;19.30;67.10
78054;DHT22;67726;45.636;11.752;2023-05-09T05:57:29;19.30;64.10
78054;DHT22;67726;45.636;11.752;2023-05-09T05:59:55;19.50;64.50
78054;DHT22;67726;45.636;11.752;2023-05-09T06:02:21;19.70;65.60
78054;DHT22;67726;45.636;11.752;2023-05-09T06:04:46;20.10;62.70
78054;DHT22;67726;45.636;11.752;2023-05-09T06:07:12;21.20;58.00
78054;DHT22;67726;45.636;11.752;2023-05-09T06:09:38;22.50;55.00
78054;DHT22;67726;45.636;11.752;2023-05-09T06:12:04;23.50;57.50
78054;DHT22;67726;45.636;11.752;2023-05-09T06:14:31;25.10;47.50
78054;DHT22;67726;45.636;11.752;2023-05-09T06:16:57;26.30;49.10
78054;DHT22;67726;45.636;11.752;2023-05-09T06:19:23;27.00;44.60
78054;DHT22;67726;45.636;11.752;2023-05-09T06:21:48;27.50;37.20
78054;DHT22;67726;45.636;11.752;2023-05-09T06:24:14;27.80;36.70
78054;DHT22;67726;45.636;11.752;2023-05-09T06:26:40;28.40;38.10
78054;DHT22;67726;45.636;11.752;2023-05-09T06:29:05;29.50;42.40
78054;DHT22;67726;45.636;11.752;2023-05-09T06:31:32;30.40;31.20
78054;DHT22;67726;45.636;11.752;2023-05-09T06:34:03;30.80;33.20
78054;DHT22;67726;45.636;11.752;2023-05-09T06:36:28;31.30;37.10
78054;DHT22;67726;45.636;11.752;2023-05-09T06:38:54;31.10;27.60
78054;DHT22;67726;45.636;11.752;2023-05-09T06:41:20;31.00;30.50
78054;DHT22;67726;45.636;11.752;2023-05-09T06:43:46;30.60;30.00
78054;DHT22;67726;45.636;11.752;2023-05-09T06:46:12;30.60;30.50
78054;DHT22;67726;45.636;11.752;2023-05-09T06:48:38;30.80;35.30
78054;DHT22;67726;45.636;11.752;2023-05-09T06:51:03;29.50;29.10
78054;DHT22;67726;45.636;11.752;2023-05-09T06:53:29;28.00;36.30
78054;DHT22;67726;45.636;11.752;2023-05-09T06:55:54;27.10;37.70
78054;DHT22;67726;45.636;11.752;2023-05-09T06:58:20;26.30;39.30
78054;DHT22;67726;45.636;11.752;2023-05-09T07:00:46;26.10;40.00
78054;DHT22;67726;45.636;11.752;2023-05-09T07:03:12;26.00;38.40
78054;DHT22;67726;45.636;11.752;2023-05-09T07:05:37;25.60;39.00
78054;DHT22;67726;45.636;11.752;2023-05-09T07:08:03;25.90;38.20
78054;DHT22;67726;45.636;11.752;2023-05-09T07:10:29;26.10;38.80
78054;DHT22;67726;45.636;11.752;2023-05-09T07:12:55;26.80;40.90
78054;DHT22;67726;45.636;11.752;2023-05-09T07:15:20;27.50;42.60
78054;DHT22;67726;45.636;11.752;2023-05-09T07:17:46;27.60;31.40
78054;DHT22;67726;45.636;11.752;2023-05-09T07:20:12;28.20;31.30
78054;DHT22;67726;45.636;11.752;2023-05-09T07:22:37;28.80;33.70
78054;DHT22;67726;45.636;11.752;2023-05-09T07:25:05;30.10;28.80
78054;DHT22;67726;45.636;11.752;2023-05-09T07:27:31;30.90;29.50
78054;DHT22;67726;45.636;11.752;2023-05-09T07:29:56;31.70;38.50
78054;DHT22;67726;45.636;11.752;2023-05-09T07:32:22;31.60;27.30
78054;DHT22;67726;45.636;11.752;2023-05-09T07:34:47;31.80;25.50
78054;DHT22;67726;45.636;11.752;2023-05-09T07:37:13;31.60;23.50
78054;DHT22;67726;45.636;11.752;2023-05-09T07:39:39;30.90;26.00
78054;DHT22;67726;45.636;11.752;2023-05-09T07:42:05;30.60;24.80
78054;DHT22;67726;45.636;11.752;2023-05-09T07:44:30;31.50;36.20
78054;DHT22;67726;45.636;11.752;2023-05-09T07:46:56;32.10;27.50
78054;DHT22;67726;45.636;11.752;2023-05-09T07:49:24;32.10;22.60
78054;DHT22;67726;45.636;11.752;2023-05-09T07:51:50;32.80;23.50
78054;DHT22;67726;45.636;11.752;2023-05-09T07:54:16;33.30;30.00
78054;DHT22;67726;45.636;11.752;2023-05-09T07:56:41;33.40;29.70
78054;DHT22;67726;45.636;11.752;2023-05-09T07:59:07;33.50;26.60
78054;DHT22;67726;45.636;11.752;2023-05-09T08:01:33;33.10;26.30
78054;DHT22;67726;45.636;11.752;2023-05-09T08:03:59;33.00;29.80
78054;DHT22;67726;45.636;11.752;2023-05-09T08:06:24;33.10;27.40
78054;DHT22;67726;45.636;11.752;2023-05-09T08:08:50;33.30;22.40
78054;DHT22;67726;45.636;11.752;2023-05-09T08:11:16;32.40;25.80
78054;DHT22;67726;45.636;11.752;2023-05-09T08:13:42;33.60;30.00
78054;DHT22;67726;45.636;11.752;2023-05-09T08:16:07;33.60;27.60
78054;DHT22;67726;45.636;11.752;2023-05-09T08:18:33;33.60;29.60
78054;DHT22;67726;45.636;11.752;2023-05-09T08:20:59;33.10;24.80
78054;DHT22;67726;45.636;11.752;2023-05-09T08:23:25;32.70;23.30
78054;DHT22;67726;45.636;11.752;2023-05-09T08:25:54;32.60;26.60
78054;DHT22;67726;45.636;11.752;2023-05-09T08:28:21;32.80;26.80
78054;DHT22;67726;45.636;11.752;2023-05-09T08:30:49;32.50;23.70
78054;DHT22;67726;45.636;11.752;2023-05-09T08:33:15;31.00;29.40
78054;DHT22;67726;45.636;11.752;2023-05-09T08:35:41;31.70;28.70
78054;DHT22;67726;45.636;11.752;2023-05-09T08:38:07;32.70;27.60
78054;DHT22;67726;45.636;11.752;2023-05-09T08:40:36;32.20;21.80
78054;DHT22;67726;45.636;11.752;2023-05-09T08:43:04;33.40;20.80
78054;DHT22;67726;45.636;11.752;2023-05-09T08:45:34;32.10;27.10
78054;DHT22;67726;45.636;11.752;2023-05-09T08:48:03;32.70;28.10
78054;DHT22;67726;45.636;11.752;2023-05-09T08:50:31;33.30;31.90
78054;DHT22;67726;45.636;11.752;2023-05-09T08:52:57;33.80;26.20
78054;DHT22;67726;45.636;11.752;2023-05-09T08:55:23;33.90;30.00
78054;DHT22;67726;45.636;11.752;2023-05-09T08:57:51;34.40;25.40
78054;DHT22;67726;45.636;11.752;2023-05-09T09:00:17;33.70;20.10
78054;DHT22;67726;45.636;11.752;2023-05-09T09:02:45;34.60;30.70
78054;DHT22;67726;45.636;11.752;2023-05-09T09:05:10;34.50;23.70
78054;DHT22;67726;45.636;11.752;2023-05-09T09:07:37;35.20;25.20
78054;DHT22;67726;45.636;11.752;2023-05-09T09:10:05;33.50;18.80
78054;DHT22;67726;45.636;11.752;2023-05-09T09:12:32;34.30;24.20
78054;DHT22;67726;45.636;11.752;2023-05-09T09:15:03;33.70;20.00
78054;DHT22;67726;45.636;11.752;2023-05-09T09:17:30;33.40;22.20
78054;DHT22;67726;45.636;11.752;2023-05-09T09:20:02;33.50;24.50
78054;DHT22;67726;45.636;11.752;2023-05-09T09:22:32;33.90;22.70
78054;DHT22;67726;45.636;11.752;2023-05-09T09:25:01;34.10;20.70
78054;DHT22;67726;45.636;11.752;2023-05-09T09:27:28;34.60;25.00
78054;DHT22;67726;45.636;11.752;2023-05-09T09:29:54;35.80;18.90
78054;DHT22;67726;45.636;11.752;2023-05-09T09:32:19;36.00;20.30
78054;DHT22;67726;45.636;11.752;2023-05-09T09:34:50;34.80;17.20
78054;DHT22;67726;45.636;11.752;2023-05-09T09:37:22;35.00;22.30
78054;DHT22;67726;45.636;11.752;2023-05-09T09:39:55;34.80;17.10
78054;DHT22;67726;45.636;11.752;2023-05-09T09:42:21;36.20;26.40
78054;DHT22;67726;45.636;11.752;2023-05-09T09:45:01;35.70;20.60
78054;DHT22;67726;45.636;11.752;2023-05-09T09:47:31;35.50;19.20
78054;DHT22;67726;45.636;11.752;2023-05-09T09:49:57;35.20;26.50
78054;DHT22;67726;45.636;11.752;2023-05-09T09:52:23;36.10;18.20
78054;DHT22;67726;45.636;11.752;2023-05-09T09:54:54;34.30;18.50
78054;DHT22;67726;45.636;11.752;2023-05-09T09:57:37;35.00;22.00
78054;DHT22;67726;45.636;11.752;2023-05-09T10:00:06;35.40;23.70
78054;DHT22;67726;45.636;11.752;2023-05-09T10:02:33;36.00;20.70
78054;DHT22;67726;45.636;11.752;2023-05-09T10:05:08;36.90;19.60
78054;DHT22;67726;45.636;11.752;2023-05-09T10:07:34;37.40;16.00
78054;DHT22;67726;45.636;11.752;2023-05-09T10:10:01;37.10;15.00
78054;DHT22;67726;45.636;11.752;2023-05-09T10:12:32;36.40;22.20
78054;DHT22;67726;45.636;11.752;2023-05-09T10:15:03;35.10;16.70
78054;DHT22;67726;45.636;11.752;2023-05-09T10:17:31;34.80;22.50
78054;DHT22;67726;45.636;11.752;2023-05-09T10:20:03;36.30;23.70
78054;DHT22;67726;45.636;11.752;2023-05-09T10:22:31;36.90;21.90
78054;DHT22;67726;45.636;11.752;2023-05-09T10:25:06;36.50;17.80
78054;DHT22;67726;45.636;11.752;2023-05-09T10:27:35;36.80;15.10
78054;DHT22;67726;45.636;11.752;2023-05-09T10:30:06;36.00;13.90
78054;DHT22;67726;45.636;11.752;2023-05-09T10:35:10;31.20;19.90
78054;DHT22;67726;45.636;11.752;2023-05-09T10:37:38;29.50;22.40
78054;DHT22;67726;45.636;11.752;2023-05-09T10:40:05;31.30;23.10
78054;DHT22;67726;45.636;11.752;2023-05-09T10:42:31;32.10;17.50
78054;DHT22;67726;45.636;11.752;2023-05-09T10:44:57;31.30;21.50
78054;DHT22;67726;45.636;11.752;2023-05-09T10:47:25;30.30;20.60
78054;DHT22;67726;45.636;11.752;2023-05-09T10:49:54;29.00;23.40
78054;DHT22;67726;45.636;11.752;2023-05-09T10:52:21;28.30;25.80
78054;DHT22;67726;45.636;11.752;2023-05-09T10:54:58;28.50;24.20
78054;DHT22;67726;45.636;11.752;2023-05-09T10:57:27;27.50;26.10
78054;DHT22;67726;45.636;11.752;2023-05-09T10:59:54;29.00;24.80
78054;DHT22;67726;45.636;11.752;2023-05-09T11:02:21;30.00;24.30
78054;DHT22;67726;45.636;11.752;2023-05-09T11:07:39;28.90;24.20
78054;DHT22;67726;45.636;11.752;2023-05-09T11:10:15;29.30;24.40
78054;DHT22;67726;45.636;11.752;2023-05-09T11:15:19;30.40;22.30
78054;DHT22;67726;45.636;11.752;2023-05-09T11:17:50;30.40;22.00
78054;DHT22;67726;45.636;11.752;2023-05-09T11:20:16;29.10;26.30
78054;DHT22;67726;45.636;11.752;2023-05-09T11:22:43;29.40;22.80
78054;DHT22;67726;45.636;11.752;2023-05-09T11:25:11;29.20;24.60
78054;DHT22;67726;45.636;11.752;2023-05-09T11:27:41;28.30;31.00
78054;DHT22;67726;45.636;11.752;2023-05-09T11:30:09;29.10;28.90
78054;DHT22;67726;45.636;11.752;2023-05-09T11:35:17;27.50;25.10
78054;DHT22;67726;45.636;11.752;2023-05-09T11:38:01;27.20;24.90
78054;DHT22;67726;45.636;11.752;2023-05-09T11:40:28;26.90;29.50
78054;DHT22;67726;45.636;11.752;2023-05-09T11:42:55;27.60;28.50
78054;DHT22;67726;45.636;11.752;2023-05-09T11:45:22;28.30;33.70
78054;DHT22;67726;45.636;11.752;2023-05-09T11:47:49;28.70;25.90
78054;DHT22;67726;45.636;11.752;2023-05-09T11:50:17;28.60;26.70
78054;DHT22;67726;45.636;11.752;2023-05-09T11:52:44;28.10;26.50
78054;DHT22;67726;45.636;11.752;2023-05-09T11:55:15;28.10;36.30
78054;DHT22;67726;45.636;11.752;2023-05-09T12:00:09;28.40;27.00
78054;DHT22;67726;45.636;11.752;2023-05-09T12:02:37;27.10;29.60
78054;DHT22;67726;45.636;11.752;2023-05-09T12:05:10;26.30;30.80
78054;DHT22;67726;45.636;11.752;2023-05-09T12:07:37;26.50;32.00
78054;DHT22;67726;45.636;11.752;2023-05-09T12:10:13;26.70;34.00
78054;DHT22;67726;45.636;11.752;2023-05-09T12:12:44;25.90;29.60
78054;DHT22;67726;45.636;11.752;2023-05-09T12:15:11;25.80;31.00
78054;DHT22;67726;45.636;11.752;2023-05-09T12:17:41;25.70;31.00
78054;DHT22;67726;45.636;11.752;2023-05-09T12:20:08;25.00;32.30
78054;DHT22;67726;45.636;11.752;2023-05-09T12:22:34;24.60;39.10
78054;DHT22;67726;45.636;11.752;2023-05-09T12:25:04;24.50;33.50
78054;DHT22;67726;45.636;11.752;2023-05-09T12:27:32;24.10;34.40
78054;DHT22;67726;45.636;11.752;2023-05-09T12:30:04;24.50;39.40
78054;DHT22;67726;45.636;11.752;2023-05-09T12:32:33;24.80;33.30
78054;DHT22;67726;45.636;11.752;2023-05-09T12:34:59;24.90;34.00
78054;DHT22;67726;45.636;11.752;2023-05-09T12:37:25;24.80;31.20
78054;DHT22;67726;45.636;11.752;2023-05-09T12:42:31;24.40;34.40
78054;DHT22;67726;45.636;11.752;2023-05-09T12:44:57;23.80;35.50
78054;DHT22;67726;45.636;11.752;2023-05-09T12:47:30;23.90;41.40
78054;DHT22;67726;45.636;11.752;2023-05-09T12:50:00;23.70;36.20
78054;DHT22;67726;45.636;11.752;2023-05-09T12:52:36;23.80;38.00
78054;DHT22;67726;45.636;11.752;2023-05-09T12:55:09;23.70;35.80
78054;DHT22;67726;45.636;11.752;2023-05-09T12:57:35;23.70;36.10
78054;DHT22;67726;45.636;11.752;2023-05-09T13:00:03;23.80;38.20
78054;DHT22;67726;45.636;11.752;2023-05-09T13:02:38;23.50;36.20
78054;DHT22;67726;45.636;11.752;2023-05-09T13:05:11;23.30;37.10
78054;DHT22;67726;45.636;11.752;2023-05-09T13:07:44;23.00;37.70
78054;DHT22;67726;45.636;11.752;2023-05-09T13:10:13;23.30;43.50
78054;DHT22;67726;45.636;11.752;2023-05-09T13:12:40;23.60;38.20
78054;DHT22;67726;45.636;11.752;2023-05-09T13:15:12;23.70;40.60
78054;DHT22;67726;45.636;11.752;2023-05-09T13:17:38;23.80;40.30
78054;DHT22;67726;45.636;11.752;2023-05-09T13:20:04;23.80;36.60
78054;DHT22;67726;45.636;11.752;2023-05-09T13:22:30;23.90;38.70
78054;DHT22;67726;45.636;11.752;2023-05-09T13:24:56;24.00;37.90
78054;DHT22;67726;45.636;11.752;2023-05-09T13:27:21;23.80;41.20
78054;DHT22;67726;45.636;11.752;2023-05-09T13:29:47;23.70;37.80
78054;DHT22;67726;45.636;11.752;2023-05-09T13:32:13;23.60;38.00
78054;DHT22;67726;45.636;11.752;2023-05-09T13:34:39;23.10;39.90
78054;DHT22;67726;45.636;11.752;2023-05-09T13:37:05;22.90;43.10
78054;DHT22;67726;45.636;11.752;2023-05-09T13:39:30;22.90;40.90
78054;DHT22;67726;45.636;11.752;2023-05-09T13:41:56;22.90;41.30
78054;DHT22;67726;45.636;11.752;2023-05-09T13:44:22;23.00;41.80
78054;DHT22;67726;45.636;11.752;2023-05-09T13:46:51;23.00;40.60
78054;DHT22;67726;45.636;11.752;2023-05-09T13:49:17;23.10;41.10
78054;DHT22;67726;45.636;11.752;2023-05-09T13:51:44;23.20;43.40
78054;DHT22;67726;45.636;11.752;2023-05-09T13:54:09;23.20;40.60
78054;DHT22;67726;45.636;11.752;2023-05-09T13:56:38;23.50;39.50
78054;DHT22;67726;45.636;11.752;2023-05-09T13:59:05;23.60;39.00
78054;DHT22;67726;45.636;11.752;2023-05-09T14:01:31;23.80;40.00
78054;DHT22;67726;45.636;11.752;2023-05-09T14:03:56;23.80;38.50
78054;DHT22;67726;45.636;11.752;2023-05-09T14:06:22;23.80;38.00
78054;DHT22;67726;45.636;11.752;2023-05-09T14:08:48;23.50;40.40
78054;DHT22;67726;45.636;11.752;2023-05-09T14:11:13;23.70;40.00
78054;DHT22;67726;45.636;11.752;2023-05-09T14:13:39;23.70;35.70
78054;DHT22;67726;45.636;11.752;2023-05-09T14:16:05;23.90;35.90
78054;DHT22;67726;45.636;11.752;2023-05-09T14:18:31;24.10;39.90
78054;DHT22;67726;45.636;11.752;2023-05-09T14:20:56;24.10;39.10
78054;DHT22;67726;45.636;11.752;2023-05-09T14:23:22;24.30;42.30
78054;DHT22;67726;45.636;11.752;2023-05-09T14:25:49;24.40;35.80
78054;DHT22;67726;45.636;11.752;2023-05-09T14:28:15;24.20;37.00
78054;DHT22;67726;45.636;11.752;2023-05-09T14:30:41;24.00;35.30
78054;DHT22;67726;45.636;11.752;2023-05-09T14:33:06;24.00;37.10
78054;DHT22;67726;45.636;11.752;2023-05-09T14:35:32;24.20;36.20
78054;DHT22;67726;45.636;11.752;2023-05-09T14:37:59;24.10;34.90
78054;DHT22;67726;45.636;11.752;2023-05-09T14:40:25;23.90;37.40
78054;DHT22;67726;45.636;11.752;2023-05-09T14:42:56;23.90;34.20
78054;DHT22;67726;45.636;11.752;2023-05-09T14:45:22;23.90;36.30
78054;DHT22;67726;45.636;11.752;2023-05-09T14:47:48;23.80;36.20
78054;DHT22;67726;45.636;11.752;2023-05-09T14:50:14;23.90;35.60
78054;DHT22;67726;45.636;11.752;2023-05-09T14:52:41;23.60;37.20
78054;DHT22;67726;45.636;11.752;2023-05-09T14:55:08;23.70;41.10
78054;DHT22;67726;45.636;11.752;2023-05-09T14:57:34;23.80;37.30
78054;DHT22;67726;45.636;11.752;2023-05-09T14:59:59;24.00;40.00
78054;DHT22;67726;45.636;11.752;2023-05-09T15:02:25;23.90;37.00
78054;DHT22;67726;45.636;11.752;2023-05-09T15:04:51;23.80;35.80
78054;DHT22;67726;45.636;11.752;2023-05-09T15:07:17;23.60;37.60
78054;DHT22;67726;45.636;11.752;2023-05-09T15:09:43;23.40;37.90
78054;DHT22;67726;45.636;11.752;2023-05-09T15:12:08;23.20;37.90
78054;DHT22;67726;45.636;11.752;2023-05-09T15:14:35;23.30;40.40
78054;DHT22;67726;45.636;11.752;2023-05-09T15:17:01;23.40;37.50
78054;DHT22;67726;45.636;11.752;2023-05-09T15:19:28;23.50;39.70
78054;DHT22;67726;45.636;11.752;2023-05-09T15:21:59;23.40;37.10
78054;DHT22;67726;45.636;11.752;2023-05-09T15:24:24;23.10;38.90
78054;DHT22;67726;45.636;11.752;2023-05-09T15:26:54;23.20;38.50
78054;DHT22;67726;45.636;11.752;2023-05-09T15:29:19;23.30;38.40
78054;DHT22;67726;45.636;11.752;2023-05-09T15:31:46;23.30;38.60
78054;DHT22;67726;45.636;11.752;2023-05-09T15:34:13;23.30;40.60
78054;DHT22;67726;45.636;11.752;2023-05-09T15:36:38;23.60;39.30
78054;DHT22;67726;45.636;11.752;2023-05-09T15:39:04;23.70;38.40
78054;DHT22;67726;45.636;11.752;2023-05-09T15:41:30;23.70;38.60
78054;DHT22;67726;45.636;11.752;2023-05-09T15:43:56;23.70;37.00